sensor_id;sensor_type;location;lat;lon;timestamp;P1;durP1;ratioP1;P2;durP2;ratioP2
41739;SDS011;27422;52.444;13.300;2023-02-28T00:02:17;7.28;;;2.15;;
41739;SDS011;27422;52.444;13.300;2023-02-28T00:04:43;6.43;;;2.05;;
41739;SDS011;27422;52.444;13.300;2023-02-28T00:07:08;4.13;;;1.75;;
41739;SDS011;27422;52.444;13.300;2023-02-28T00:09:34;5.45;;;1.95;;
41739;SDS011;27422;52.444;13.300;2023-02-28T00:12:00;3.78;;;2.05;;
41739;SDS011;27422;52.444;13.300;2023-02-28T00:14:29;5.80;;;2.10;;
41739;SDS011;27422;52.444;13.300;2023-02-28T00:16:55;7.00;;;2.90;;
41739;SDS011;27422;52.444;13.300;2023-02-28T00:19:20;5.28;;;2.33;;
41739;SDS011;27422;52.444;13.300;2023-02-28T00:21:46;5.88;;;2.20;;
41739;SDS011;27422;52.444;13.300;2023-02-28T00:24:11;6.13;;;2.20;;
41739;SDS011;27422;52.444;13.300;2023-02-28T00:26:36;5.10;;;2.40;;
41739;SDS011;27422;52.444;13.300;2023-02-28T00:29:02;5.28;;;2.30;;
41739;SDS011;27422;52.444;13.300;2023-02-28T00:31:27;4.05;;;2.05;;
41739;SDS011;27422;52.444;13.300;2023-02-28T00:33:52;6.72;;;2.35;;
41739;SDS011;27422;52.444;13.300;2023-02-28T00:36:18;5.57;;;2.35;;
41739;SDS011;27422;52.444;13.300;2023-02-28T00:38:43;5.53;;;2.40;;
41739;SDS011;27422;52.444;13.300;2023-02-28T00:41:09;4.95;;;2.00;;
41739;SDS011;27422;52.444;13.300;2023-02-28T00:43:35;7.88;;;2.60;;
41739;SDS011;27422;52.444;13.300;2023-02-28T00:46:01;6.15;;;2.55;;
41739;SDS011;27422;52.444;13.300;2023-02-28T00:48:27;5.47;;;2.60;;
41739;SDS011;27422;52.444;13.300;2023-02-28T00:50:53;5.75;;;2.50;;
41739;SDS011;27422;52.444;13.300;2023-02-28T00:53:19;5.75;;;2.10;;
41739;SDS011;27422;52.444;13.300;2023-02-28T00:55:44;5.53;;;2.33;;
41739;SDS011;27422;52.444;13.300;2023-02-28T00:58:10;6.47;;;2.67;;
41739;SDS011;27422;52.444;13.300;2023-02-28T01:00:35;6.18;;;2.60;;
41739;SDS011;27422;52.444;13.300;2023-02-28T01:03:00;7.05;;;2.83;;
41739;SDS011;27422;52.444;13.300;2023-02-28T01:05:26;7.35;;;2.80;;
41739;SDS011;27422;52.444;13.300;2023-02-28T01:07:52;7.35;;;2.63;;
41739;SDS011;27422;52.444;13.300;2023-02-28T01:10:17;7.22;;;2.97;;
41739;SDS011;27422;52.444;13.300;2023-02-28T01:12:43;7.22;;;2.67;;
41739;SDS011;27422;52.444;13.300;2023-02-28T01:15:09;6.13;;;2.83;;
41739;SDS011;27422;52.444;13.300;2023-02-28T01:17:35;4.90;;;2.42;;
41739;SDS011;27422;52.444;13.300;2023-02-28T01:20:01;6.57;;;3.10;;
41739;SDS011;27422;52.444;13.300;2023-02-28T01:22:26;7.07;;;3.10;;
41739;SDS011;27422;52.444;13.300;2023-02-28T01:24:51;5.13;;;2.40;;
41739;SDS011;27422;52.444;13.300;2023-02-28T01:27:17;6.78;;;2.70;;
41739;SDS011;27422;52.444;13.300;2023-02-28T01:29:43;6.40;;;2.70;;
41739;SDS011;27422;52.444;13.300;2023-02-28T01:32:08;7.65;;;3.00;;
41739;SDS011;27422;52.444;13.300;2023-02-28T01:34:34;7.88;;;2.70;;
41739;SDS011;27422;52.444;13.300;2023-02-28T01:36:59;5.82;;;2.83;;
41739;SDS011;27422;52.444;13.300;2023-02-28T01:39:25;5.35;;;2.58;;
41739;SDS011;27422;52.444;13.300;2023-02-28T01:41:51;5.57;;;2.78;;
41739;SDS011;27422;52.444;13.300;2023-02-28T01:47:19;6.40;;;2.50;;
41739;SDS011;27422;52.444;13.300;2023-02-28T01:49:44;7.97;;;2.97;;
41739;SDS011;27422;52.444;13.300;2023-02-28T01:52:10;6.95;;;2.40;;
41739;SDS011;27422;52.444;13.300;2023-02-28T01:54:39;5.63;;;2.53;;
41739;SDS011;27422;52.444;13.300;2023-02-28T01:57:15;6.55;;;2.78;;
41739;SDS011;27422;52.444;13.300;2023-02-28T01:59:46;5.22;;;2.75;;
41739;SDS011;27422;52.444;13.300;2023-02-28T02:02:15;8.93;;;3.33;;
41739;SDS011;27422;52.444;13.300;2023-02-28T02:04:46;6.35;;;3.00;;
41739;SDS011;27422;52.444;13.300;2023-02-28T02:07:22;5.78;;;2.85;;
41739;SDS011;27422;52.444;13.300;2023-02-28T02:09:48;6.05;;;2.92;;
41739;SDS011;27422;52.444;13.300;2023-02-28T02:18:19;5.93;;;2.85;;
41739;SDS011;27422;52.444;13.300;2023-02-28T02:38:06;7.53;;;3.40;;
41739;SDS011;27422;52.444;13.300;2023-02-28T02:40:58;5.45;;;3.03;;
41739;SDS011;27422;52.444;13.300;2023-02-28T02:43:35;5.30;;;2.53;;
41739;SDS011;27422;52.444;13.300;2023-02-28T02:46:05;6.78;;;3.35;;
41739;SDS011;27422;52.444;13.300;2023-02-28T02:48:36;8.32;;;2.80;;
41739;SDS011;27422;52.444;13.300;2023-02-28T02:51:06;7.13;;;2.78;;
41739;SDS011;27422;52.444;13.300;2023-02-28T02:53:37;6.22;;;2.97;;
41739;SDS011;27422;52.444;13.300;2023-02-28T02:56:05;8.93;;;3.28;;
41739;SDS011;27422;52.444;13.300;2023-02-28T02:58:33;5.32;;;2.50;;
41739;SDS011;27422;52.444;13.300;2023-02-28T03:01:07;6.07;;;2.78;;
41739;SDS011;27422;52.444;13.300;2023-02-28T03:03:36;6.57;;;3.20;;
41739;SDS011;27422;52.444;13.300;2023-02-28T03:06:02;6.57;;;3.05;;
41739;SDS011;27422;52.444;13.300;2023-02-28T03:08:29;6.10;;;2.88;;
41739;SDS011;27422;52.444;13.300;2023-02-28T03:11:02;5.40;;;2.90;;
41739;SDS011;27422;52.444;13.300;2023-02-28T03:21:26;6.65;;;3.05;;
41739;SDS011;27422;52.444;13.300;2023-02-28T03:24:07;6.50;;;3.20;;
41739;SDS011;27422;52.444;13.300;2023-02-28T03:26:34;6.07;;;3.05;;
41739;SDS011;27422;52.444;13.300;2023-02-28T03:29:15;5.93;;;3.45;;
41739;SDS011;27422;52.444;13.300;2023-02-28T03:31:50;7.88;;;3.90;;
41739;SDS011;27422;52.444;13.300;2023-02-28T03:34:26;7.75;;;3.38;;
41739;SDS011;27422;52.444;13.300;2023-02-28T03:36:56;6.85;;;3.53;;
41739;SDS011;27422;52.444;13.300;2023-02-28T03:39:35;8.25;;;3.65;;
41739;SDS011;27422;52.444;13.300;2023-02-28T03:42:10;8.82;;;3.78;;
41739;SDS011;27422;52.444;13.300;2023-02-28T03:44:39;6.57;;;3.17;;
41739;SDS011;27422;52.444;13.300;2023-02-28T03:47:17;7.68;;;3.80;;
41739;SDS011;27422;52.444;13.300;2023-02-28T03:49:53;8.25;;;4.10;;
41739;SDS011;27422;52.444;13.300;2023-02-28T03:52:25;6.88;;;3.40;;
41739;SDS011;27422;52.444;13.300;2023-02-28T03:54:54;6.22;;;3.60;;
41739;SDS011;27422;52.444;13.300;2023-02-28T04:00:00;6.97;;;3.40;;
41739;SDS011;27422;52.444;13.300;2023-02-28T04:02:31;7.70;;;3.75;;
41739;SDS011;27422;52.444;13.300;2023-02-28T04:04:57;6.15;;;3.05;;
41739;SDS011;27422;52.444;13.300;2023-02-28T04:07:22;9.63;;;3.55;;
41739;SDS011;27422;52.444;13.300;2023-02-28T04:09:47;8.82;;;3.85;;
41739;SDS011;27422;52.444;13.300;2023-02-28T04:12:13;6.60;;;3.35;;
41739;SDS011;27422;52.444;13.300;2023-02-28T04:14:38;7.07;;;3.33;;
41739;SDS011;27422;52.444;13.300;2023-02-28T04:17:03;6.82;;;3.40;;
41739;SDS011;27422;52.444;13.300;2023-02-28T04:19:29;9.63;;;4.15;;
41739;SDS011;27422;52.444;13.300;2023-02-28T04:21:54;8.75;;;3.97;;
41739;SDS011;27422;52.444;13.300;2023-02-28T04:24:24;5.93;;;3.33;;
41739;SDS011;27422;52.444;13.300;2023-02-28T04:26:51;8.02;;;4.00;;
41739;SDS011;27422;52.444;13.300;2023-02-28T04:29:19;7.38;;;3.65;;
41739;SDS011;27422;52.444;13.300;2023-02-28T04:31:48;9.90;;;3.70;;
41739;SDS011;27422;52.444;13.300;2023-02-28T04:34:14;7.47;;;3.72;;
41739;SDS011;27422;52.444;13.300;2023-02-28T04:36:40;9.73;;;3.50;;
41739;SDS011;27422;52.444;13.300;2023-02-28T04:39:05;7.75;;;3.50;;
41739;SDS011;27422;52.444;13.300;2023-02-28T04:41:31;8.27;;;3.53;;
41739;SDS011;27422;52.444;13.300;2023-02-28T04:43:56;7.88;;;3.80;;
41739;SDS011;27422;52.444;13.300;2023-02-28T04:46:22;7.45;;;3.95;;
41739;SDS011;27422;52.444;13.300;2023-02-28T04:48:48;9.27;;;3.50;;
41739;SDS011;27422;52.444;13.300;2023-02-28T04:51:14;6.85;;;3.80;;
41739;SDS011;27422;52.444;13.300;2023-02-28T04:53:41;7.65;;;3.80;;
41739;SDS011;27422;52.444;13.300;2023-02-28T04:56:07;8.27;;;4.07;;
41739;SDS011;27422;52.444;13.300;2023-02-28T04:58:34;7.82;;;3.63;;
41739;SDS011;27422;52.444;13.300;2023-02-28T05:01:03;8.73;;;3.85;;
41739;SDS011;27422;52.444;13.300;2023-02-28T05:03:30;8.05;;;3.50;;
41739;SDS011;27422;52.444;13.300;2023-02-28T05:05:55;8.05;;;3.85;;
41739;SDS011;27422;52.444;13.300;2023-02-28T05:08:20;9.80;;;4.07;;
41739;SDS011;27422;52.444;13.300;2023-02-28T05:10:46;7.78;;;3.97;;
41739;SDS011;27422;52.444;13.300;2023-02-28T05:13:12;8.93;;;4.10;;
41739;SDS011;27422;52.444;13.300;2023-02-28T05:15:37;6.28;;;3.38;;
41739;SDS011;27422;52.444;13.300;2023-02-28T05:18:03;7.38;;;3.95;;
41739;SDS011;27422;52.444;13.300;2023-02-28T05:20:28;8.25;;;4.20;;
41739;SDS011;27422;52.444;13.300;2023-02-28T05:22:53;8.82;;;3.95;;
41739;SDS011;27422;52.444;13.300;2023-02-28T05:25:20;6.68;;;3.70;;
41739;SDS011;27422;52.444;13.300;2023-02-28T05:27:49;9.00;;;3.95;;
41739;SDS011;27422;52.444;13.300;2023-02-28T05:30:14;10.05;;;4.25;;
41739;SDS011;27422;52.444;13.300;2023-02-28T05:32:40;9.75;;;3.97;;
41739;SDS011;27422;52.444;13.300;2023-02-28T05:35:12;8.45;;;4.03;;
41739;SDS011;27422;52.444;13.300;2023-02-28T05:37:38;7.57;;;4.07;;
41739;SDS011;27422;52.444;13.300;2023-02-28T05:40:04;7.80;;;4.00;;
41739;SDS011;27422;52.444;13.300;2023-02-28T05:42:35;11.07;;;4.30;;
41739;SDS011;27422;52.444;13.300;2023-02-28T05:45:01;11.05;;;4.97;;
41739;SDS011;27422;52.444;13.300;2023-02-28T05:47:26;10.25;;;3.95;;
41739;SDS011;27422;52.444;13.300;2023-02-28T05:49:51;10.13;;;5.05;;
41739;SDS011;27422;52.444;13.300;2023-02-28T05:52:17;8.57;;;4.40;;
41739;SDS011;27422;52.444;13.300;2023-02-28T05:54:42;9.23;;;4.57;;
41739;SDS011;27422;52.444;13.300;2023-02-28T05:57:08;9.73;;;4.60;;
41739;SDS011;27422;52.444;13.300;2023-02-28T05:59:33;7.32;;;4.15;;
41739;SDS011;27422;52.444;13.300;2023-02-28T06:01:59;7.97;;;4.28;;
41739;SDS011;27422;52.444;13.300;2023-02-28T06:04:24;7.53;;;4.15;;
41739;SDS011;27422;52.444;13.300;2023-02-28T06:06:50;9.18;;;4.32;;
41739;SDS011;27422;52.444;13.300;2023-02-28T06:09:15;8.75;;;4.22;;
41739;SDS011;27422;52.444;13.300;2023-02-28T06:11:41;8.65;;;3.85;;
41739;SDS011;27422;52.444;13.300;2023-02-28T06:14:07;7.75;;;3.97;;
41739;SDS011;27422;52.444;13.300;2023-02-28T06:16:44;9.38;;;5.13;;
41739;SDS011;27422;52.444;13.300;2023-02-28T06:19:09;7.47;;;3.95;;
41739;SDS011;27422;52.444;13.300;2023-02-28T06:21:35;10.23;;;4.68;;
41739;SDS011;27422;52.444;13.300;2023-02-28T06:24:01;11.38;;;5.38;;
41739;SDS011;27422;52.444;13.300;2023-02-28T06:26:27;9.27;;;4.70;;
41739;SDS011;27422;52.444;13.300;2023-02-28T06:28:52;9.43;;;4.65;;
41739;SDS011;27422;52.444;13.300;2023-02-28T06:31:18;10.23;;;4.60;;
41739;SDS011;27422;52.444;13.300;2023-02-28T06:33:44;9.45;;;4.25;;
41739;SDS011;27422;52.444;13.300;2023-02-28T06:36:10;11.38;;;5.03;;
41739;SDS011;27422;52.444;13.300;2023-02-28T06:38:36;10.90;;;4.30;;
41739;SDS011;27422;52.444;13.300;2023-02-28T06:41:02;8.52;;;4.90;;
41739;SDS011;27422;52.444;13.300;2023-02-28T06:43:29;8.18;;;4.32;;
41739;SDS011;27422;52.444;13.300;2023-02-28T06:45:56;11.15;;;4.47;;
41739;SDS011;27422;52.444;13.300;2023-02-28T06:48:23;8.95;;;4.45;;
41739;SDS011;27422;52.444;13.300;2023-02-28T06:50:49;8.82;;;4.53;;
41739;SDS011;27422;52.444;13.300;2023-02-28T06:53:14;11.07;;;4.32;;
41739;SDS011;27422;52.444;13.300;2023-02-28T06:55:40;8.63;;;5.00;;
41739;SDS011;27422;52.444;13.300;2023-02-28T06:58:06;9.05;;;4.70;;
41739;SDS011;27422;52.444;13.300;2023-02-28T07:00:40;10.75;;;5.07;;
41739;SDS011;27422;52.444;13.300;2023-02-28T07:03:13;8.65;;;4.97;;
41739;SDS011;27422;52.444;13.300;2023-02-28T07:05:51;10.32;;;4.32;;
41739;SDS011;27422;52.444;13.300;2023-02-28T07:08:16;9.45;;;4.55;;
41739;SDS011;27422;52.444;13.300;2023-02-28T07:10:41;9.27;;;4.75;;
41739;SDS011;27422;52.444;13.300;2023-02-28T07:13:07;7.75;;;4.47;;
41739;SDS011;27422;52.444;13.300;2023-02-28T07:15:33;10.05;;;4.30;;
41739;SDS011;27422;52.444;13.300;2023-02-28T07:17:59;9.75;;;4.30;;
41739;SDS011;27422;52.444;13.300;2023-02-28T07:20:25;9.43;;;4.45;;
41739;SDS011;27422;52.444;13.300;2023-02-28T07:22:51;9.65;;;4.50;;
41739;SDS011;27422;52.444;13.300;2023-02-28T07:25:25;7.93;;;3.75;;
41739;SDS011;27422;52.444;13.300;2023-02-28T07:27:51;8.65;;;4.57;;
41739;SDS011;27422;52.444;13.300;2023-02-28T07:30:20;10.07;;;4.72;;
41739;SDS011;27422;52.444;13.300;2023-02-28T07:32:46;9.25;;;4.75;;
41739;SDS011;27422;52.444;13.300;2023-02-28T07:35:11;9.35;;;4.43;;
41739;SDS011;27422;52.444;13.300;2023-02-28T07:37:37;7.40;;;4.13;;
41739;SDS011;27422;52.444;13.300;2023-02-28T07:40:06;10.18;;;4.53;;
41739;SDS011;27422;52.444;13.300;2023-02-28T07:42:36;6.45;;;3.55;;
41739;SDS011;27422;52.444;13.300;2023-02-28T07:45:02;8.77;;;3.80;;
41739;SDS011;27422;52.444;13.300;2023-02-28T07:47:30;9.05;;;3.90;;
41739;SDS011;27422;52.444;13.300;2023-02-28T07:49:56;8.18;;;3.42;;
41739;SDS011;27422;52.444;13.300;2023-02-28T07:52:22;8.32;;;3.45;;
41739;SDS011;27422;52.444;13.300;2023-02-28T07:54:48;9.10;;;3.40;;
41739;SDS011;27422;52.444;13.300;2023-02-28T07:57:17;6.00;;;2.85;;
41739;SDS011;27422;52.444;13.300;2023-02-28T07:59:43;6.70;;;3.25;;
41739;SDS011;27422;52.444;13.300;2023-02-28T08:02:12;6.50;;;2.85;;
41739;SDS011;27422;52.444;13.300;2023-02-28T08:04:39;7.97;;;3.00;;
41739;SDS011;27422;52.444;13.300;2023-02-28T08:07:04;6.93;;;2.53;;
41739;SDS011;27422;52.444;13.300;2023-02-28T08:09:29;5.40;;;2.72;;
41739;SDS011;27422;52.444;13.300;2023-02-28T08:11:55;6.68;;;2.90;;
41739;SDS011;27422;52.444;13.300;2023-02-28T08:14:20;6.25;;;2.63;;
41739;SDS011;27422;52.444;13.300;2023-02-28T08:16:46;6.72;;;2.80;;
41739;SDS011;27422;52.444;13.300;2023-02-28T08:19:11;4.18;;;2.17;;
41739;SDS011;27422;52.444;13.300;2023-02-28T08:21:36;6.03;;;2.50;;
41739;SDS011;27422;52.444;13.300;2023-02-28T08:24:02;4.75;;;2.00;;
41739;SDS011;27422;52.444;13.300;2023-02-28T08:26:27;4.18;;;1.70;;
41739;SDS011;27422;52.444;13.300;2023-02-28T08:28:52;4.40;;;1.88;;
41739;SDS011;27422;52.444;13.300;2023-02-28T08:31:18;4.43;;;1.90;;
41739;SDS011;27422;52.444;13.300;2023-02-28T08:33:44;4.85;;;1.40;;
41739;SDS011;27422;52.444;13.300;2023-02-28T08:36:10;3.78;;;1.40;;
41739;SDS011;27422;52.444;13.300;2023-02-28T08:38:36;4.38;;;1.40;;
41739;SDS011;27422;52.444;13.300;2023-02-28T08:41:03;3.97;;;1.17;;
41739;SDS011;27422;52.444;13.300;2023-02-28T08:43:32;4.63;;;1.23;;
41739;SDS011;27422;52.444;13.300;2023-02-28T08:45:58;4.55;;;2.05;;
41739;SDS011;27422;52.444;13.300;2023-02-28T08:48:24;3.20;;;1.27;;
41739;SDS011;27422;52.444;13.300;2023-02-28T08:53:21;5.13;;;1.60;;
41739;SDS011;27422;52.444;13.300;2023-02-28T08:55:47;8.23;;;3.72;;
41739;SDS011;27422;52.444;13.300;2023-02-28T08:58:20;3.47;;;1.20;;
41739;SDS011;27422;52.444;13.300;2023-02-28T09:00:46;3.30;;;1.58;;
41739;SDS011;27422;52.444;13.300;2023-02-28T09:03:31;3.13;;;1.27;;
41739;SDS011;27422;52.444;13.300;2023-02-28T09:05:58;4.15;;;1.75;;
41739;SDS011;27422;52.444;13.300;2023-02-28T09:10:51;3.95;;;2.03;;
41739;SDS011;27422;52.444;13.300;2023-02-28T09:13:17;6.03;;;1.90;;
41739;SDS011;27422;52.444;13.300;2023-02-28T09:15:43;4.30;;;1.50;;
41739;SDS011;27422;52.444;13.300;2023-02-28T09:18:08;2.60;;;0.95;;
41739;SDS011;27422;52.444;13.300;2023-02-28T09:20:34;2.95;;;1.20;;
41739;SDS011;27422;52.444;13.300;2023-02-28T09:22:59;3.40;;;1.23;;
41739;SDS011;27422;52.444;13.300;2023-02-28T09:25:24;2.92;;;1.13;;
41739;SDS011;27422;52.444;13.300;2023-02-28T09:27:51;3.05;;;1.48;;
41739;SDS011;27422;52.444;13.300;2023-02-28T09:30:16;3.13;;;1.35;;
41739;SDS011;27422;52.444;13.300;2023-02-28T09:32:42;3.45;;;1.45;;
41739;SDS011;27422;52.444;13.300;2023-02-28T09:35:20;4.22;;;1.67;;
41739;SDS011;27422;52.444;13.300;2023-02-28T09:37:50;4.47;;;1.58;;
41739;SDS011;27422;52.444;13.300;2023-02-28T09:40:20;2.97;;;1.33;;
41739;SDS011;27422;52.444;13.300;2023-02-28T09:42:48;4.38;;;1.80;;
41739;SDS011;27422;52.444;13.300;2023-02-28T09:45:36;3.97;;;1.55;;
41739;SDS011;27422;52.444;13.300;2023-02-28T09:48:06;3.90;;;1.50;;
41739;SDS011;27422;52.444;13.300;2023-02-28T09:50:38;4.15;;;1.60;;
41739;SDS011;27422;52.444;13.300;2023-02-28T09:53:11;3.72;;;1.58;;
41739;SDS011;27422;52.444;13.300;2023-02-28T09:55:50;3.65;;;1.67;;
41739;SDS011;27422;52.444;13.300;2023-02-28T09:58:26;3.75;;;1.42;;
41739;SDS011;27422;52.444;13.300;2023-02-28T10:01:06;4.18;;;1.50;;
41739;SDS011;27422;52.444;13.300;2023-02-28T10:03:39;3.55;;;1.35;;
41739;SDS011;27422;52.444;13.300;2023-02-28T10:06:17;5.25;;;1.67;;
41739;SDS011;27422;52.444;13.300;2023-02-28T10:09:06;3.65;;;1.50;;
41739;SDS011;27422;52.444;13.300;2023-02-28T10:11:38;3.40;;;1.33;;
41739;SDS011;27422;52.444;13.300;2023-02-28T10:22:01;4.68;;;1.42;;
41739;SDS011;27422;52.444;13.300;2023-02-28T10:24:32;2.58;;;1.20;;
41739;SDS011;27422;52.444;13.300;2023-02-28T10:27:06;3.50;;;1.40;;
41739;SDS011;27422;52.444;13.300;2023-02-28T10:29:56;3.42;;;1.55;;
41739;SDS011;27422;52.444;13.300;2023-02-28T10:32:27;4.32;;;1.55;;
41739;SDS011;27422;52.444;13.300;2023-02-28T10:35:07;3.28;;;1.20;;
41739;SDS011;27422;52.444;13.300;2023-02-28T10:37:44;2.47;;;1.17;;
41739;SDS011;27422;52.444;13.300;2023-02-28T10:40:33;4.78;;;1.20;;
41739;SDS011;27422;52.444;13.300;2023-02-28T10:45:37;3.47;;;1.45;;
41739;SDS011;27422;52.444;13.300;2023-02-28T10:48:04;2.75;;;0.98;;
41739;SDS011;27422;52.444;13.300;2023-02-28T10:53:34;3.03;;;1.25;;
41739;SDS011;27422;52.444;13.300;2023-02-28T10:56:04;3.50;;;1.17;;
41739;SDS011;27422;52.444;13.300;2023-02-28T10:58:49;2.97;;;1.23;;
41739;SDS011;27422;52.444;13.300;2023-02-28T11:03:55;4.13;;;1.38;;
41739;SDS011;27422;52.444;13.300;2023-02-28T11:06:32;6.45;;;2.38;;
41739;SDS011;27422;52.444;13.300;2023-02-28T11:08:59;9.52;;;3.88;;
41739;SDS011;27422;52.444;13.300;2023-02-28T11:11:28;3.90;;;1.42;;
41739;SDS011;27422;52.444;13.300;2023-02-28T11:14:21;4.53;;;1.50;;
41739;SDS011;27422;52.444;13.300;2023-02-28T11:16:48;3.10;;;1.35;;
41739;SDS011;27422;52.444;13.300;2023-02-28T11:19:22;4.65;;;1.70;;
41739;SDS011;27422;52.444;13.300;2023-02-28T11:21:52;2.80;;;1.30;;
41739;SDS011;27422;52.444;13.300;2023-02-28T11:24:53;3.80;;;1.60;;
41739;SDS011;27422;52.444;13.300;2023-02-28T11:29:57;3.10;;;1.30;;
41739;SDS011;27422;52.444;13.300;2023-02-28T11:32:24;6.68;;;1.40;;
41739;SDS011;27422;52.444;13.300;2023-02-28T11:35:01;4.07;;;1.25;;
41739;SDS011;27422;52.444;13.300;2023-02-28T11:37:36;6.68;;;1.30;;
41739;SDS011;27422;52.444;13.300;2023-02-28T11:40:05;3.33;;;1.40;;
41739;SDS011;27422;52.444;13.300;2023-02-28T11:45:15;3.90;;;1.50;;
41739;SDS011;27422;52.444;13.300;2023-02-28T11:47:48;3.70;;;1.50;;
41739;SDS011;27422;52.444;13.300;2023-02-28T11:53:02;3.38;;;1.30;;
41739;SDS011;27422;52.444;13.300;2023-02-28T11:55:39;4.63;;;1.38;;
41739;SDS011;27422;52.444;13.300;2023-02-28T11:58:17;3.08;;;1.30;;
41739;SDS011;27422;52.444;13.300;2023-02-28T12:03:35;5.40;;;1.50;;
41739;SDS011;27422;52.444;13.300;2023-02-28T12:27:27;4.43;;;1.77;;
41739;SDS011;27422;52.444;13.300;2023-02-28T12:29:57;7.63;;;2.00;;
41739;SDS011;27422;52.444;13.300;2023-02-28T12:32:27;4.40;;;1.83;;
41739;SDS011;27422;52.444;13.300;2023-02-28T12:34:58;5.13;;;1.80;;
41739;SDS011;27422;52.444;13.300;2023-02-28T12:37:30;4.20;;;1.80;;
41739;SDS011;27422;52.444;13.300;2023-02-28T12:40:03;4.15;;;1.98;;
41739;SDS011;27422;52.444;13.300;2023-02-28T12:42:36;4.75;;;2.00;;
41739;SDS011;27422;52.444;13.300;2023-02-28T12:45:06;4.30;;;1.85;;
41739;SDS011;27422;52.444;13.300;2023-02-28T12:47:36;6.30;;;2.15;;
41739;SDS011;27422;52.444;13.300;2023-02-28T12:52:37;4.07;;;1.88;;
41739;SDS011;27422;52.444;13.300;2023-02-28T13:00:25;7.07;;;2.10;;
41739;SDS011;27422;52.444;13.300;2023-02-28T13:03:00;4.45;;;2.20;;
41739;SDS011;27422;52.444;13.300;2023-02-28T13:11:26;4.45;;;2.30;;
41739;SDS011;27422;52.444;13.300;2023-02-28T13:14:03;5.15;;;1.92;;
41739;SDS011;27422;52.444;13.300;2023-02-28T13:19:34;12.82;;;4.68;;
41739;SDS011;27422;52.444;13.300;2023-02-28T13:22:02;4.72;;;2.05;;
41739;SDS011;27422;52.444;13.300;2023-02-28T13:34:33;4.85;;;2.20;;
41739;SDS011;27422;52.444;13.300;2023-02-28T13:39:50;4.43;;;2.05;;
41739;SDS011;27422;52.444;13.300;2023-02-28T13:47:30;4.00;;;2.00;;
41739;SDS011;27422;52.444;13.300;2023-02-28T13:52:46;6.85;;;2.80;;
41739;SDS011;27422;52.444;13.300;2023-02-28T13:55:28;3.63;;;1.67;;
41739;SDS011;27422;52.444;13.300;2023-02-28T13:58:02;5.40;;;2.15;;
41739;SDS011;27422;52.444;13.300;2023-02-28T14:11:26;4.68;;;2.10;;
41739;SDS011;27422;52.444;13.300;2023-02-28T14:13:58;4.80;;;1.88;;
41739;SDS011;27422;52.444;13.300;2023-02-28T14:16:25;5.47;;;1.98;;
41739;SDS011;27422;52.444;13.300;2023-02-28T14:19:09;5.53;;;2.70;;
41739;SDS011;27422;52.444;13.300;2023-02-28T14:21:38;6.10;;;2.22;;
41739;SDS011;27422;52.444;13.300;2023-02-28T14:30:17;8.20;;;3.38;;
41739;SDS011;27422;52.444;13.300;2023-02-28T14:35:50;7.30;;;2.30;;
41739;SDS011;27422;52.444;13.300;2023-02-28T14:38:25;4.47;;;1.75;;
41739;SDS011;27422;52.444;13.300;2023-02-28T14:40:54;5.18;;;2.08;;
41739;SDS011;27422;52.444;13.300;2023-02-28T14:43:23;4.15;;;2.17;;
41739;SDS011;27422;52.444;13.300;2023-02-28T14:45:51;5.60;;;2.08;;
41739;SDS011;27422;52.444;13.300;2023-02-28T14:48:19;5.47;;;1.80;;
41739;SDS011;27422;52.444;13.300;2023-02-28T14:50:52;5.25;;;2.10;;
41739;SDS011;27422;52.444;13.300;2023-02-28T14:53:20;4.03;;;2.00;;
41739;SDS011;27422;52.444;13.300;2023-02-28T14:55:47;4.72;;;2.40;;
41739;SDS011;27422;52.444;13.300;2023-02-28T14:58:21;4.83;;;2.20;;
41739;SDS011;27422;52.444;13.300;2023-02-28T15:00:50;4.65;;;2.08;;
41739;SDS011;27422;52.444;13.300;2023-02-28T15:05:55;5.20;;;2.03;;
41739;SDS011;27422;52.444;13.300;2023-02-28T15:08:22;3.97;;;1.98;;
41739;SDS011;27422;52.444;13.300;2023-02-28T15:13:18;4.80;;;1.92;;
41739;SDS011;27422;52.444;13.300;2023-02-28T15:15:54;4.95;;;1.98;;
41739;SDS011;27422;52.444;13.300;2023-02-28T15:21:12;3.75;;;1.95;;
41739;SDS011;27422;52.444;13.300;2023-02-28T15:23:40;5.22;;;1.67;;
41739;SDS011;27422;52.444;13.300;2023-02-28T15:26:10;4.70;;;2.42;;
41739;SDS011;27422;52.444;13.300;2023-02-28T15:28:59;4.60;;;1.98;;
41739;SDS011;27422;52.444;13.300;2023-02-28T15:31:33;5.10;;;2.38;;
41739;SDS011;27422;52.444;13.300;2023-02-28T15:34:04;5.38;;;2.53;;
41739;SDS011;27422;52.444;13.300;2023-02-28T15:36:31;6.28;;;2.75;;
41739;SDS011;27422;52.444;13.300;2023-02-28T15:43:57;5.75;;;2.35;;
41739;SDS011;27422;52.444;13.300;2023-02-28T15:49:28;5.93;;;2.15;;
41739;SDS011;27422;52.444;13.300;2023-02-28T15:51:56;4.20;;;2.15;;
41739;SDS011;27422;52.444;13.300;2023-02-28T15:54:24;5.13;;;2.10;;
41739;SDS011;27422;52.444;13.300;2023-02-28T15:56:57;5.88;;;2.58;;
41739;SDS011;27422;52.444;13.300;2023-02-28T15:59:33;6.55;;;2.53;;
41739;SDS011;27422;52.444;13.300;2023-02-28T16:02:15;5.18;;;2.08;;
41739;SDS011;27422;52.444;13.300;2023-02-28T16:05:46;4.63;;;2.13;;
41739;SDS011;27422;52.444;13.300;2023-02-28T16:07:46;4.68;;;2.17;;
41739;SDS011;27422;52.444;13.300;2023-02-28T16:10:14;5.00;;;2.20;;
41739;SDS011;27422;52.444;13.300;2023-02-28T16:12:39;5.18;;;2.17;;
41739;SDS011;27422;52.444;13.300;2023-02-28T16:15:15;4.38;;;1.92;;
41739;SDS011;27422;52.444;13.300;2023-02-28T16:17:43;6.50;;;2.65;;
41739;SDS011;27422;52.444;13.300;2023-02-28T16:20:20;5.18;;;2.05;;
41739;SDS011;27422;52.444;13.300;2023-02-28T16:22:50;4.35;;;2.20;;
41739;SDS011;27422;52.444;13.300;2023-02-28T16:25:17;5.47;;;2.50;;
41739;SDS011;27422;52.444;13.300;2023-02-28T16:27:47;5.43;;;2.42;;
41739;SDS011;27422;52.444;13.300;2023-02-28T16:30:23;5.03;;;2.22;;
41739;SDS011;27422;52.444;13.300;2023-02-28T16:32:49;8.10;;;3.10;;
41739;SDS011;27422;52.444;13.300;2023-02-28T16:35:16;5.18;;;2.63;;
41739;SDS011;27422;52.444;13.300;2023-02-28T16:37:43;5.43;;;2.67;;
41739;SDS011;27422;52.444;13.300;2023-02-28T16:40:16;5.30;;;2.30;;
41739;SDS011;27422;52.444;13.300;2023-02-28T16:42:50;6.22;;;2.40;;
41739;SDS011;27422;52.444;13.300;2023-02-28T16:45:24;6.40;;;2.57;;
41739;SDS011;27422;52.444;13.300;2023-02-28T16:47:50;5.75;;;2.25;;
41739;SDS011;27422;52.444;13.300;2023-02-28T16:50:17;5.63;;;2.28;;
41739;SDS011;27422;52.444;13.300;2023-02-28T16:55:09;6.85;;;2.53;;
41739;SDS011;27422;52.444;13.300;2023-02-28T16:57:35;4.82;;;2.20;;
41739;SDS011;27422;52.444;13.300;2023-02-28T17:00:00;6.13;;;2.40;;
41739;SDS011;27422;52.444;13.300;2023-02-28T17:02:26;6.60;;;2.63;;
41739;SDS011;27422;52.444;13.300;2023-02-28T17:04:51;5.85;;;2.65;;
41739;SDS011;27422;52.444;13.300;2023-02-28T17:07:18;6.22;;;2.42;;
41739;SDS011;27422;52.444;13.300;2023-02-28T17:09:44;4.68;;;2.22;;
41739;SDS011;27422;52.444;13.300;2023-02-28T17:12:09;7.38;;;2.33;;
41739;SDS011;27422;52.444;13.300;2023-02-28T17:14:36;7.18;;;2.20;;
41739;SDS011;27422;52.444;13.300;2023-02-28T17:17:01;5.95;;;2.50;;
41739;SDS011;27422;52.444;13.300;2023-02-28T17:19:27;5.72;;;2.72;;
41739;SDS011;27422;52.444;13.300;2023-02-28T17:21:53;5.40;;;2.45;;
41739;SDS011;27422;52.444;13.300;2023-02-28T17:24:18;5.22;;;2.50;;
41739;SDS011;27422;52.444;13.300;2023-02-28T17:26:44;7.90;;;2.58;;
41739;SDS011;27422;52.444;13.300;2023-02-28T17:29:13;7.88;;;2.58;;
41739;SDS011;27422;52.444;13.300;2023-02-28T17:31:40;6.47;;;2.20;;